createdAt,value
2019-04-04T00:00:28.384Z,0.00
2019-04-04T00:01:28.371Z,0.00
2019-04-04T00:02:28.359Z,0.00
2019-04-04T00:03:28.352Z,0.00
2019-04-04T00:04:28.351Z,0.00
2019-04-04T00:05:28.352Z,0.00
2019-04-04T00:06:28.316Z,0.00
2019-04-04T00:07:29.093Z,0.00
2019-04-04T00:08:30.768Z,0.00
2019-04-04T00:09:28.290Z,0.00
2019-04-04T00:10:28.293Z,0.00
2019-04-04T00:11:28.249Z,0.00
2019-04-04T00:12:28.243Z,0.00
2019-04-04T00:13:28.239Z,0.00
2019-04-04T00:14:28.235Z,0.00
2019-04-04T00:15:28.229Z,0.00
2019-04-04T00:16:28.250Z,0.00
2019-04-04T00:17:28.185Z,0.00
2019-04-04T00:18:28.173Z,0.00
2019-04-04T00:19:29.936Z,0.00
2019-04-04T00:20:29.816Z,0.00
2019-04-04T00:21:28.175Z,0.00
2019-04-04T00:22:28.155Z,0.00
2019-04-04T00:23:28.138Z,0.00
2019-04-04T00:24:28.112Z,0.00
2019-04-04T00:25:28.099Z,0.00
2019-04-04T00:26:28.134Z,0.00
2019-04-04T00:27:28.092Z,0.00
2019-04-04T00:28:28.091Z,0.00
2019-04-04T00:29:28.059Z,0.00
2019-04-04T00:30:28.044Z,0.00
2019-04-04T00:31:28.036Z,0.00
2019-04-04T00:32:28.048Z,0.00
2019-04-04T00:33:28.049Z,0.00
2019-04-04T00:34:28.738Z,0.00
2019-04-04T00:35:29.072Z,0.00
2019-04-04T00:36:27.977Z,0.00
2019-04-04T00:37:28.002Z,0.00
2019-04-04T00:38:27.984Z,0.00
2019-04-04T00:39:27.972Z,0.00
2019-04-04T00:40:27.929Z,0.00
2019-04-04T00:41:27.920Z,0.00
2019-04-04T00:42:27.922Z,0.00
2019-04-04T00:43:27.925Z,0.00
2019-04-04T00:44:27.896Z,0.00
2019-04-04T00:45:28.991Z,0.00
2019-04-04T00:46:29.049Z,0.00
2019-04-04T00:47:27.859Z,0.00
2019-04-04T00:48:27.861Z,0.00
2019-04-04T00:49:27.844Z,0.00
2019-04-04T00:50:27.834Z,0.00
2019-04-04T00:51:27.843Z,0.00
2019-04-04T00:52:27.802Z,0.00
2019-04-04T00:53:27.787Z,0.00
2019-04-04T00:54:27.787Z,0.00
2019-04-04T00:55:27.782Z,0.00
2019-04-04T00:56:27.783Z,0.00
2019-04-04T00:57:28.408Z,0.00
2019-04-04T00:58:27.736Z,0.00
2019-04-04T00:59:27.739Z,0.00
2019-04-04T01:00:27.734Z,0.00
2019-04-04T01:01:28.413Z,0.00
2019-04-04T01:02:27.982Z,0.00
2019-04-04T01:03:28.089Z,0.00
2019-04-04T01:04:30.839Z,0.00
2019-04-04T01:05:27.660Z,0.00
2019-04-04T01:06:27.658Z,0.00
2019-04-04T01:07:27.651Z,0.00
2019-04-04T01:08:27.663Z,0.00
2019-04-04T01:09:27.645Z,0.00
2019-04-04T01:10:27.599Z,0.00
2019-04-04T01:11:27.591Z,0.00
2019-04-04T01:12:27.583Z,0.00
2019-04-04T01:13:27.838Z,0.00
2019-04-04T01:14:29.325Z,0.00
2019-04-04T01:15:30.797Z,0.00
2019-04-04T01:16:27.557Z,0.00
2019-04-04T01:17:27.525Z,0.00
2019-04-04T01:18:27.524Z,0.00
2019-04-04T01:19:27.511Z,0.00
2019-04-04T01:20:27.518Z,0.00
2019-04-04T01:21:27.478Z,0.00
2019-04-04T01:22:27.477Z,0.00
2019-04-04T01:23:27.699Z,0.00
2019-04-04T01:24:29.122Z,0.00
2019-04-04T01:25:27.451Z,0.00
2019-04-04T01:26:27.484Z,0.00
2019-04-04T01:27:27.449Z,0.00
2019-04-04T01:28:27.402Z,0.00
2019-04-04T01:29:27.394Z,0.00
2019-04-04T01:30:27.393Z,0.00
2019-04-04T01:31:27.386Z,0.00
2019-04-04T01:32:27.387Z,0.00
2019-04-04T01:33:27.357Z,0.00
2019-04-04T01:34:27.349Z,0.00
2019-04-04T01:35:27.330Z,0.00
2019-04-04T01:36:27.335Z,0.00
2019-04-04T01:37:27.881Z,0.00
2019-04-04T01:38:29.141Z,0.00
2019-04-04T01:39:29.028Z,0.00
2019-04-04T01:40:27.274Z,0.00
2019-04-04T01:41:27.277Z,0.00
2019-04-04T01:42:27.268Z,0.00
2019-04-04T01:43:27.269Z,0.00
2019-04-04T01:44:27.227Z,0.00
2019-04-04T01:45:27.217Z,0.00
2019-04-04T01:46:27.199Z,0.00
2019-04-04T01:47:27.212Z,0.00
2019-04-04T01:48:27.196Z,0.00
2019-04-04T01:49:27.223Z,0.00
2019-04-04T01:50:27.153Z,0.00
2019-04-04T01:51:27.140Z,0.00
2019-04-04T01:52:28.676Z,0.00
2019-04-04T01:53:28.136Z,0.00
2019-04-04T01:54:27.140Z,0.00
2019-04-04T01:55:27.133Z,0.00
2019-04-04T01:56:27.102Z,0.00
2019-04-04T01:57:27.086Z,0.00
2019-04-04T01:58:27.083Z,0.00
2019-04-04T01:59:27.073Z,0.00
2019-04-04T02:00:27.082Z,0.00
2019-04-04T02:01:27.914Z,0.00
2019-04-04T02:02:27.021Z,0.00
2019-04-04T02:03:27.012Z,0.00
2019-04-04T02:04:27.012Z,0.00
2019-04-04T02:05:27.613Z,0.00
2019-04-04T02:06:28.442Z,0.00
2019-04-04T02:07:27.791Z,0.00
2019-04-04T02:08:26.957Z,0.00
2019-04-04T02:09:26.943Z,0.00
2019-04-04T02:10:26.948Z,0.00
2019-04-04T02:11:26.962Z,0.00
2019-04-04T02:12:26.930Z,0.00
2019-04-04T02:13:26.944Z,0.00
2019-04-04T02:14:26.888Z,0.00
2019-04-04T02:15:26.882Z,0.00
2019-04-04T02:16:26.877Z,0.00
2019-04-04T02:17:26.891Z,0.00
2019-04-04T02:18:26.867Z,0.00
2019-04-04T02:19:26.881Z,0.00
2019-04-04T02:20:27.447Z,0.00
2019-04-04T02:21:28.537Z,0.00
2019-04-04T02:22:26.827Z,0.00
2019-04-04T02:23:26.799Z,0.00
2019-04-04T02:24:26.796Z,0.00
2019-04-04T02:25:26.767Z,0.00
2019-04-04T02:26:26.759Z,0.00
2019-04-04T02:27:26.744Z,0.00
2019-04-04T02:28:26.759Z,0.00
2019-04-04T02:29:26.734Z,0.00
2019-04-04T02:30:26.712Z,0.00
2019-04-04T02:31:26.702Z,0.00
2019-04-04T02:32:27.684Z,0.00
2019-04-04T02:33:27.013Z,0.00
2019-04-04T02:34:26.672Z,0.00
2019-04-04T02:35:26.673Z,0.00
2019-04-04T02:36:26.652Z,0.00
2019-04-04T02:37:26.627Z,0.00
2019-04-04T02:38:27.982Z,0.00
2019-04-04T02:39:26.645Z,0.00
2019-04-04T02:40:26.625Z,0.00
2019-04-04T02:41:26.611Z,0.00
2019-04-04T02:42:26.589Z,0.00
2019-04-04T02:43:28.278Z,0.00
2019-04-04T02:44:26.583Z,0.00
2019-04-04T02:45:26.562Z,0.00
2019-04-04T02:46:26.550Z,0.00
2019-04-04T02:47:26.565Z,0.00
2019-04-04T02:48:26.507Z,0.00
2019-04-04T02:49:29.250Z,0.00
2019-04-04T02:50:26.509Z,0.00
2019-04-04T02:51:26.487Z,0.00
2019-04-04T02:52:26.506Z,0.00
2019-04-04T02:53:26.457Z,0.00
2019-04-04T02:54:26.445Z,0.00
2019-04-04T02:55:29.774Z,0.00
2019-04-04T02:56:26.428Z,0.00
2019-04-04T02:57:26.428Z,0.00
2019-04-04T02:58:26.443Z,0.00
2019-04-04T02:59:26.419Z,0.00
2019-04-04T03:00:27.694Z,0.00
2019-04-04T03:01:26.377Z,0.00
2019-04-04T03:02:26.408Z,0.00
2019-04-04T03:03:26.348Z,0.00
2019-04-04T03:04:26.361Z,0.00
2019-04-04T03:05:26.368Z,0.00
2019-04-04T03:06:26.312Z,0.00
2019-04-04T03:07:29.881Z,0.00
2019-04-04T03:08:26.295Z,0.00
2019-04-04T03:09:26.286Z,0.00
2019-04-04T03:10:26.285Z,0.00
2019-04-04T03:11:26.256Z,0.00
2019-04-04T03:12:27.033Z,0.00
2019-04-04T03:13:26.266Z,0.00
2019-04-04T03:14:26.227Z,0.00
2019-04-04T03:15:26.225Z,0.00
2019-04-04T03:16:26.229Z,0.00
2019-04-04T03:17:26.207Z,0.00
2019-04-04T03:18:26.186Z,0.00
2019-04-04T03:19:26.189Z,0.00
2019-04-04T03:20:26.166Z,0.00
2019-04-04T03:21:26.193Z,0.00
2019-04-04T03:22:27.562Z,0.00
2019-04-04T03:23:26.179Z,0.00
2019-04-04T03:24:26.114Z,0.00
2019-04-04T03:25:26.096Z,0.00
2019-04-04T03:26:26.106Z,0.00
2019-04-04T03:27:27.203Z,0.00
2019-04-04T03:28:26.100Z,0.00
2019-04-04T03:29:26.070Z,0.00
2019-04-04T03:30:26.048Z,0.00
2019-04-04T03:31:26.047Z,0.00
2019-04-04T03:32:26.041Z,0.00
2019-04-04T03:33:31.337Z,0.00
2019-04-04T03:34:27.022Z,0.00
2019-04-04T03:35:28.458Z,0.00
2019-04-04T03:36:25.984Z,0.00
2019-04-04T03:37:25.985Z,0.00
2019-04-04T03:38:25.967Z,0.00
2019-04-04T03:39:25.968Z,0.00
2019-04-04T03:40:26.055Z,0.00
2019-04-04T03:41:27.559Z,0.00
2019-04-04T03:42:25.908Z,0.00
2019-04-04T03:43:25.912Z,0.00
2019-04-04T03:44:25.949Z,0.00
2019-04-04T03:45:27.266Z,0.00
2019-04-04T03:46:25.864Z,0.00
2019-04-04T03:47:25.868Z,0.00
2019-04-04T03:48:25.851Z,0.00
2019-04-04T03:49:25.850Z,0.00
2019-04-04T03:50:29.144Z,0.00
2019-04-04T03:51:25.816Z,0.00
2019-04-04T03:52:25.802Z,0.00
2019-04-04T03:53:25.801Z,0.00
2019-04-04T03:54:25.776Z,0.00
2019-04-04T03:55:27.811Z,0.00
2019-04-04T03:56:25.794Z,0.00
2019-04-04T03:57:25.744Z,0.00
2019-04-04T03:58:27.905Z,0.00
2019-04-04T03:59:25.721Z,0.00
2019-04-04T04:00:25.713Z,0.00
2019-04-04T04:01:25.706Z,0.00
2019-04-04T04:02:25.724Z,0.00
2019-04-04T04:03:25.681Z,0.00
2019-04-04T04:04:28.176Z,0.00
2019-04-04T04:05:25.648Z,0.00
2019-04-04T04:06:25.644Z,0.00
2019-04-04T04:07:25.664Z,0.00
2019-04-04T04:08:25.652Z,0.00
2019-04-04T04:09:26.369Z,0.00
2019-04-04T04:10:25.601Z,0.00
2019-04-04T04:11:25.591Z,0.00
2019-04-04T04:12:25.592Z,0.00
2019-04-04T04:13:25.583Z,0.00
2019-04-04T04:14:25.586Z,0.00
2019-04-04T04:15:29.048Z,0.00
2019-04-04T04:16:25.532Z,0.00
2019-04-04T04:17:25.588Z,0.00
2019-04-04T04:18:25.540Z,0.00
2019-04-04T04:19:30.101Z,0.00
2019-04-04T04:20:25.522Z,0.00
2019-04-04T04:21:25.506Z,0.00
2019-04-04T04:22:26.399Z,0.00
2019-04-04T04:23:25.457Z,0.00
2019-04-04T04:24:26.740Z,0.00
2019-04-04T04:25:25.452Z,0.00
2019-04-04T04:26:25.428Z,0.00
2019-04-04T04:27:25.423Z,0.00
2019-04-04T04:28:25.391Z,0.00
2019-04-04T04:29:29.382Z,0.00
2019-04-04T04:30:25.381Z,0.00
2019-04-04T04:31:25.380Z,0.00
2019-04-04T04:32:25.375Z,4.00
2019-04-04T04:33:28.933Z,4.00
2019-04-04T04:34:25.330Z,0.00
2019-04-04T04:35:25.340Z,4.00
2019-04-04T04:36:25.323Z,4.00
2019-04-04T04:37:25.327Z,4.00
2019-04-04T04:38:26.739Z,4.00
2019-04-04T04:39:25.305Z,8.00
2019-04-04T04:40:25.288Z,4.00
2019-04-04T04:41:25.276Z,8.00
2019-04-04T04:42:26.592Z,8.00
2019-04-04T04:43:25.223Z,12.00
2019-04-04T04:44:25.224Z,8.00
2019-04-04T04:45:25.211Z,12.00
2019-04-04T04:46:25.202Z,12.00
2019-04-04T04:47:25.274Z,16.00
2019-04-04T04:48:26.053Z,16.00
2019-04-04T04:49:25.198Z,16.00
2019-04-04T04:50:25.153Z,16.00
2019-04-04T04:51:25.163Z,16.00
2019-04-04T04:52:25.127Z,16.00
2019-04-04T04:53:25.146Z,20.00
2019-04-04T04:54:25.133Z,20.00
2019-04-04T04:55:27.188Z,24.00
2019-04-04T04:56:25.092Z,24.00
2019-04-04T04:57:29.818Z,28.00
2019-04-04T04:58:26.083Z,24.00
2019-04-04T04:59:25.063Z,28.00
2019-04-04T05:00:27.551Z,32.00
2019-04-04T05:01:25.028Z,32.00
2019-04-04T05:02:25.042Z,36.00
2019-04-04T05:03:25.005Z,36.00
2019-04-04T05:04:27.824Z,40.00
2019-04-04T05:05:24.995Z,40.00
2019-04-04T05:06:24.988Z,40.00
2019-04-04T05:07:24.961Z,44.00
2019-04-04T05:08:24.952Z,48.00
2019-04-04T05:09:24.935Z,48.00
2019-04-04T05:10:24.942Z,56.00
2019-04-04T05:11:24.935Z,56.00
2019-04-04T05:12:24.931Z,60.00
2019-04-04T05:13:28.583Z,60.00
2019-04-04T05:14:24.886Z,64.00
2019-04-04T05:15:24.874Z,68.00
2019-04-04T05:16:24.872Z,72.00
2019-04-04T05:17:24.867Z,64.00
2019-04-04T05:18:24.833Z,64.00
2019-04-04T05:19:24.831Z,72.00
2019-04-04T05:20:25.631Z,72.00
2019-04-04T05:21:28.532Z,92.00
2019-04-04T05:22:24.812Z,92.00
2019-04-04T05:23:24.826Z,92.00
2019-04-04T05:24:24.808Z,96.00
2019-04-04T05:25:24.785Z,96.00
2019-04-04T05:26:24.780Z,92.00
2019-04-04T05:27:24.743Z,96.00
2019-04-04T05:28:24.738Z,96.00
2019-04-04T05:29:24.731Z,100.00
2019-04-04T05:30:24.733Z,112.00
2019-04-04T05:31:24.691Z,116.00
2019-04-04T05:32:24.677Z,120.00
2019-04-04T05:33:26.935Z,112.00
2019-04-04T05:34:24.673Z,120.00
2019-04-04T05:35:24.695Z,128.00
2019-04-04T05:36:24.638Z,144.00
2019-04-04T05:37:27.384Z,140.00
2019-04-04T05:38:24.609Z,160.00
2019-04-04T05:39:24.620Z,156.00
2019-04-04T05:40:24.631Z,168.00
2019-04-04T05:41:27.086Z,176.00
2019-04-04T05:42:24.596Z,204.00
2019-04-04T05:43:24.558Z,224.00
2019-04-04T05:44:24.558Z,236.00
2019-04-04T05:45:24.555Z,228.00
2019-04-04T05:46:24.554Z,256.00
2019-04-04T05:47:24.540Z,256.00
2019-04-04T05:48:24.499Z,288.00
2019-04-04T05:49:24.491Z,296.00
2019-04-04T05:50:24.486Z,320.00
2019-04-04T05:51:24.514Z,300.00
2019-04-04T05:52:24.484Z,308.00
2019-04-04T05:53:24.467Z,316.00
2019-04-04T05:54:24.435Z,360.00
2019-04-04T05:55:24.424Z,376.00
2019-04-04T05:56:24.552Z,412.00
2019-04-04T05:57:24.427Z,432.00
2019-04-04T05:58:24.414Z,452.00
2019-04-04T05:59:24.518Z,432.00
2019-04-04T06:00:26.977Z,468.00
2019-04-04T06:01:24.401Z,456.00
2019-04-04T06:02:24.420Z,584.00
2019-04-04T06:03:24.352Z,508.00
2019-04-04T06:04:24.375Z,572.00
2019-04-04T06:05:26.860Z,536.00
2019-04-04T06:06:24.302Z,512.00
2019-04-04T06:07:24.312Z,508.00
2019-04-04T06:08:24.365Z,484.00
2019-04-04T06:09:24.284Z,664.00
2019-04-04T06:10:24.309Z,648.00
2019-04-04T06:11:24.259Z,612.00
2019-04-04T06:12:25.029Z,548.00
2019-04-04T06:13:26.716Z,584.00
2019-04-04T06:14:24.235Z,648.00
2019-04-04T06:15:24.219Z,644.00
2019-04-04T06:16:24.223Z,688.00
2019-04-04T06:17:26.937Z,708.00
2019-04-04T06:18:24.189Z,664.00
2019-04-04T06:19:24.157Z,672.00
2019-04-04T06:20:24.166Z,732.00
2019-04-04T06:21:24.156Z,956.00
2019-04-04T06:22:24.148Z,928.00
2019-04-04T06:23:25.052Z,1048.00
2019-04-04T06:24:25.160Z,1040.00
2019-04-04T06:25:24.096Z,1060.00
2019-04-04T06:26:24.098Z,972.00
2019-04-04T06:27:24.089Z,1120.00
2019-04-04T06:28:24.060Z,956.00
2019-04-04T06:29:24.062Z,1044.00
2019-04-04T06:30:24.034Z,1080.00
2019-04-04T06:31:26.205Z,1012.00
2019-04-04T06:32:24.024Z,936.00
2019-04-04T06:33:24.037Z,940.00
2019-04-04T06:34:24.209Z,908.00
2019-04-04T06:35:23.991Z,808.00
2019-04-04T06:36:23.969Z,812.00
2019-04-04T06:37:23.962Z,892.00
2019-04-04T06:38:24.160Z,1096.00
2019-04-04T06:39:25.148Z,1040.00
2019-04-04T06:40:23.931Z,1412.00
2019-04-04T06:41:27.923Z,976.00
2019-04-04T06:42:23.920Z,952.00
2019-04-04T06:43:23.926Z,756.00
2019-04-04T06:44:23.903Z,856.00
2019-04-04T06:45:23.891Z,948.00
2019-04-04T06:46:23.858Z,800.00
2019-04-04T06:47:25.499Z,848.00
2019-04-04T06:48:23.858Z,816.00
2019-04-04T06:49:23.845Z,1024.00
2019-04-04T06:50:23.838Z,884.00
2019-04-04T06:51:23.803Z,896.00
2019-04-04T06:52:23.805Z,920.00
2019-04-04T06:53:23.839Z,928.00
2019-04-04T06:54:25.697Z,916.00
2019-04-04T06:55:23.779Z,916.00
2019-04-04T06:56:23.766Z,1044.00
2019-04-04T06:57:23.739Z,936.00
2019-04-04T06:58:23.724Z,924.00
2019-04-04T06:59:23.742Z,980.00
2019-04-04T07:00:23.702Z,812.00
2019-04-04T07:01:25.360Z,764.00
2019-04-04T07:02:23.950Z,824.00
2019-04-04T07:03:27.041Z,712.00
2019-04-04T07:04:23.718Z,704.00
2019-04-04T07:05:23.730Z,752.00
2019-04-04T07:06:23.646Z,716.00
2019-04-04T07:07:23.653Z,724.00
2019-04-04T07:08:23.629Z,748.00
2019-04-04T07:09:23.638Z,748.00
2019-04-04T07:10:23.600Z,716.00
2019-04-04T07:11:23.582Z,740.00
2019-04-04T07:12:28.287Z,772.00
2019-04-04T07:13:27.065Z,756.00
2019-04-04T07:14:23.544Z,860.00
2019-04-04T07:15:23.537Z,772.00
2019-04-04T07:16:23.526Z,788.00
2019-04-04T07:17:23.522Z,828.00
2019-04-04T07:18:23.535Z,844.00
2019-04-04T07:19:23.536Z,892.00
2019-04-04T07:20:23.501Z,892.00
2019-04-04T07:21:23.483Z,932.00
2019-04-04T07:22:24.920Z,968.00
2019-04-04T07:23:27.237Z,996.00
2019-04-04T07:24:23.491Z,1036.00
2019-04-04T07:25:23.447Z,1092.00
2019-04-04T07:26:23.450Z,1148.00
2019-04-04T07:27:23.402Z,1212.00
2019-04-04T07:28:23.391Z,1244.00
2019-04-04T07:29:25.294Z,1292.00
2019-04-04T07:30:23.397Z,1336.00
2019-04-04T07:31:23.378Z,1376.00
2019-04-04T07:32:23.385Z,1408.00
2019-04-04T07:33:23.336Z,1420.00
2019-04-04T07:34:23.325Z,1452.00
2019-04-04T07:35:23.348Z,1440.00
2019-04-04T07:36:23.327Z,1368.00
2019-04-04T07:37:23.315Z,1312.00
2019-04-04T07:38:23.280Z,1296.00
2019-04-04T07:39:23.269Z,1292.00
2019-04-04T07:40:23.282Z,1344.00
2019-04-04T07:41:23.259Z,1412.00
2019-04-04T07:42:23.258Z,1484.00
2019-04-04T07:43:23.258Z,1552.00
2019-04-04T07:44:23.938Z,1588.00
2019-04-04T07:45:26.741Z,1612.00
2019-04-04T07:46:23.193Z,1572.00
2019-04-04T07:47:23.192Z,1532.00
2019-04-04T07:48:23.207Z,1508.00
2019-04-04T07:49:23.862Z,1504.00
2019-04-04T07:50:24.157Z,1532.00
2019-04-04T07:51:23.136Z,1576.00
2019-04-04T07:52:23.125Z,1608.00
2019-04-04T07:53:23.139Z,1648.00
2019-04-04T07:54:23.124Z,1672.00
2019-04-04T07:55:23.114Z,1664.00
2019-04-04T07:56:23.090Z,1672.00
2019-04-04T07:57:23.067Z,1672.00
2019-04-04T07:58:23.058Z,1676.00
2019-04-04T07:59:23.073Z,1700.00
2019-04-04T08:00:23.056Z,1700.00
2019-04-04T08:01:23.027Z,1700.00
2019-04-04T08:02:23.020Z,1732.00
2019-04-04T08:03:23.002Z,1756.00
2019-04-04T08:04:23.011Z,1760.00
2019-04-04T08:05:22.995Z,1720.00
2019-04-04T08:06:22.983Z,1688.00
2019-04-04T08:07:22.962Z,1684.00
2019-04-04T08:08:22.952Z,1692.00
2019-04-04T08:09:25.984Z,1720.00
2019-04-04T08:10:22.934Z,1764.00
2019-04-04T08:11:22.933Z,1800.00
2019-04-04T08:12:22.913Z,1824.00
2019-04-04T08:13:22.922Z,1848.00
2019-04-04T08:14:22.931Z,1884.00
2019-04-04T08:15:22.886Z,1916.00
2019-04-04T08:16:22.879Z,1936.00
2019-04-04T08:17:22.857Z,1968.00
2019-04-04T08:18:22.855Z,1956.00
2019-04-04T08:19:22.825Z,1944.00
2019-04-04T08:20:22.838Z,1916.00
2019-04-04T08:21:22.800Z,1904.00
2019-04-04T08:22:22.981Z,1920.00
2019-04-04T08:23:22.798Z,1932.00
2019-04-04T08:24:22.787Z,1936.00
2019-04-04T08:25:22.799Z,1940.00
2019-04-04T08:26:22.791Z,1948.00
2019-04-04T08:27:22.735Z,1932.00
2019-04-04T08:28:22.740Z,1956.00
2019-04-04T08:29:22.728Z,1980.00
2019-04-04T08:30:22.728Z,1996.00
2019-04-04T08:31:22.702Z,2004.00
2019-04-04T08:32:22.678Z,2004.00
2019-04-04T08:33:22.669Z,2012.00
2019-04-04T08:34:22.680Z,2044.00
2019-04-04T08:35:22.654Z,2064.00
2019-04-04T08:36:22.671Z,2092.00
2019-04-04T08:37:22.625Z,2140.00
2019-04-04T08:38:22.614Z,2164.00
2019-04-04T08:39:22.605Z,2192.00
2019-04-04T08:40:22.619Z,2192.00
2019-04-04T08:41:22.602Z,2176.00
2019-04-04T08:42:22.977Z,2164.00
2019-04-04T08:43:22.559Z,2152.00
2019-04-04T08:44:22.568Z,2116.00
2019-04-04T08:45:22.540Z,2104.00
2019-04-04T08:46:23.465Z,2104.00
2019-04-04T08:47:22.546Z,2068.00
2019-04-04T08:48:22.531Z,2048.00
2019-04-04T08:49:22.543Z,2016.00
2019-04-04T08:50:22.485Z,1976.00
2019-04-04T08:51:22.471Z,1944.00
2019-04-04T08:52:22.480Z,1912.00
2019-04-04T08:53:22.465Z,1900.00
2019-04-04T08:54:22.491Z,1892.00
2019-04-04T08:55:22.434Z,1864.00
2019-04-04T08:56:22.424Z,1792.00
2019-04-04T08:57:22.410Z,1740.00
2019-04-04T08:58:22.416Z,1684.00
2019-04-04T08:59:22.401Z,1644.00
2019-04-04T09:00:22.380Z,1628.00
2019-04-04T09:01:22.367Z,1616.00
2019-04-04T09:02:22.366Z,1580.00
2019-04-04T09:03:22.352Z,1576.00
2019-04-04T09:04:24.006Z,1580.00
2019-04-04T09:05:22.339Z,1568.00
2019-04-04T09:06:22.302Z,1560.00
2019-04-04T09:07:22.296Z,1544.00
2019-04-04T09:08:22.279Z,1544.00
2019-04-04T09:09:22.292Z,1536.00
2019-04-04T09:10:22.285Z,1536.00
2019-04-04T09:11:22.242Z,1532.00
2019-04-04T09:12:22.239Z,1536.00
2019-04-04T09:13:22.225Z,1524.00
2019-04-04T09:14:22.218Z,1536.00
2019-04-04T09:15:22.236Z,1560.00
2019-04-04T09:16:22.210Z,1584.00
2019-04-04T09:17:22.179Z,1624.00
2019-04-04T09:18:22.170Z,1652.00
2019-04-04T09:19:22.163Z,1696.00
2019-04-04T09:20:22.152Z,1740.00
2019-04-04T09:21:22.159Z,1796.00
2019-04-04T09:22:24.159Z,1848.00
2019-04-04T09:23:22.150Z,1916.00
2019-04-04T09:24:22.111Z,1952.00
2019-04-04T09:25:22.107Z,1976.00
2019-04-04T09:26:22.082Z,1964.00
2019-04-04T09:27:22.080Z,1964.00
2019-04-04T09:28:22.086Z,1988.00
2019-04-04T09:29:22.079Z,2008.00
2019-04-04T09:30:22.055Z,2028.00
2019-04-04T09:31:22.027Z,2076.00
2019-04-04T09:32:22.023Z,2124.00
2019-04-04T09:33:22.015Z,2148.00
2019-04-04T09:34:22.022Z,2196.00
2019-04-04T09:35:22.023Z,2300.00
2019-04-04T09:36:21.970Z,2368.00
2019-04-04T09:37:21.971Z,2348.00
2019-04-04T09:38:21.951Z,2300.00
2019-04-04T09:39:21.947Z,2212.00
2019-04-04T09:40:21.974Z,2104.00
2019-04-04T09:41:21.919Z,1988.00
2019-04-04T09:42:21.902Z,1900.00
2019-04-04T09:43:21.898Z,1888.00
2019-04-04T09:44:21.895Z,1880.00
2019-04-04T09:45:21.879Z,1880.00
2019-04-04T09:46:21.878Z,1868.00
2019-04-04T09:47:21.850Z,1876.00
2019-04-04T09:48:21.838Z,1872.00
2019-04-04T09:49:21.822Z,1824.00
2019-04-04T09:50:21.835Z,1828.00
2019-04-04T09:51:21.831Z,1860.00
2019-04-04T09:52:21.815Z,1848.00
2019-04-04T09:53:21.784Z,1856.00
2019-04-04T09:54:21.770Z,1808.00
2019-04-04T09:55:21.758Z,1736.00
2019-04-04T09:56:21.774Z,1684.00
2019-04-04T09:57:21.763Z,1656.00
2019-04-04T09:58:21.722Z,1612.00
2019-04-04T09:59:21.716Z,1592.00
2019-04-04T10:00:21.705Z,1572.00
2019-04-04T10:01:21.695Z,1556.00
2019-04-04T10:02:21.707Z,1540.00
2019-04-04T10:03:21.690Z,1544.00
2019-04-04T10:04:21.692Z,1552.00
2019-04-04T10:05:21.643Z,1540.00
2019-04-04T10:06:21.638Z,1536.00
2019-04-04T10:07:21.636Z,1528.00
2019-04-04T10:08:21.711Z,1476.00
2019-04-04T10:09:21.631Z,1444.00
2019-04-04T10:10:21.586Z,1436.00
2019-04-04T10:11:21.580Z,1340.00
2019-04-04T10:12:21.568Z,1312.00
2019-04-04T10:13:21.577Z,1312.00
2019-04-04T10:14:22.816Z,1276.00
2019-04-04T10:15:21.574Z,1280.00
2019-04-04T10:16:21.524Z,1272.00
2019-04-04T10:17:21.511Z,1284.00
2019-04-04T10:18:21.504Z,1352.00
2019-04-04T10:19:21.507Z,1476.00
2019-04-04T10:20:21.497Z,1644.00
2019-04-04T10:21:21.518Z,1820.00
2019-04-04T10:22:21.453Z,1940.00
2019-04-04T10:23:21.449Z,2044.00
2019-04-04T10:24:21.444Z,2160.00
2019-04-04T10:25:21.459Z,2256.00
2019-04-04T10:26:21.441Z,2336.00
2019-04-04T10:27:21.437Z,2396.00
2019-04-04T10:28:23.330Z,2432.00
2019-04-04T10:29:21.383Z,2464.00
2019-04-04T10:30:21.398Z,2436.00
2019-04-04T10:31:21.391Z,2428.00
2019-04-04T10:32:21.370Z,2444.00
2019-04-04T10:33:21.360Z,2428.00
2019-04-04T10:34:21.332Z,2388.00
2019-04-04T10:35:21.326Z,2412.00
2019-04-04T10:36:21.324Z,2444.00
2019-04-04T10:37:21.326Z,2432.00
2019-04-04T10:38:21.309Z,2408.00
2019-04-04T10:39:28.887Z,2384.00
2019-04-04T10:40:22.263Z,2368.00
2019-04-04T10:41:21.258Z,2384.00
2019-04-04T10:42:21.239Z,2416.00
2019-04-04T10:43:21.233Z,2432.00
2019-04-04T10:44:21.239Z,2444.00
2019-04-04T10:45:21.206Z,2436.00
2019-04-04T10:46:21.297Z,2416.00
2019-04-04T10:47:21.180Z,2400.00
2019-04-04T10:48:21.177Z,2404.00
2019-04-04T10:49:21.169Z,2424.00
2019-04-04T10:50:21.164Z,2408.00
2019-04-04T10:51:21.130Z,2412.00
2019-04-04T10:52:21.133Z,2376.00
2019-04-04T10:53:21.118Z,2364.00
2019-04-04T10:54:21.117Z,2484.00
2019-04-04T10:55:21.099Z,2564.00
2019-04-04T10:56:21.103Z,2524.00
2019-04-04T10:57:21.077Z,2564.00
2019-04-04T10:58:21.053Z,2676.00
2019-04-04T10:59:21.052Z,2672.00
2019-04-04T11:00:21.044Z,2608.00
2019-04-04T11:01:21.036Z,2508.00
2019-04-04T11:02:21.037Z,2416.00
2019-04-04T11:03:20.997Z,2260.00
2019-04-04T11:04:20.984Z,2112.00
2019-04-04T11:05:20.995Z,2024.00
2019-04-04T11:06:20.972Z,2020.00
2019-04-04T11:07:20.969Z,2064.00
2019-04-04T11:08:20.950Z,1992.00
2019-04-04T11:09:20.931Z,1996.00
2019-04-04T11:10:20.919Z,2000.00
2019-04-04T11:11:20.919Z,1992.00
2019-04-04T11:12:20.925Z,1928.00
2019-04-04T11:13:32.868Z,1876.00
2019-04-04T11:14:21.889Z,1840.00
2019-04-04T11:15:20.882Z,1804.00
2019-04-04T11:16:30.031Z,1792.00
2019-04-04T11:17:20.870Z,1728.00
2019-04-04T11:18:20.884Z,1648.00
2019-04-04T11:19:30.625Z,1584.00
2019-04-04T11:20:20.816Z,1496.00
2019-04-04T11:21:20.807Z,1404.00
2019-04-04T11:22:20.828Z,1340.00
2019-04-04T11:23:20.803Z,1276.00
2019-04-04T11:24:20.807Z,1244.00
2019-04-04T11:25:20.850Z,1216.00
2019-04-04T11:26:20.749Z,1176.00
2019-04-04T11:27:20.729Z,1144.00
2019-04-04T11:28:20.757Z,1124.00
2019-04-04T11:29:20.724Z,1116.00
2019-04-04T11:30:20.710Z,1120.00
2019-04-04T11:31:20.713Z,1124.00
2019-04-04T11:32:21.504Z,1136.00
2019-04-04T11:33:20.669Z,1160.00
2019-04-04T11:34:20.653Z,1164.00
2019-04-04T11:35:20.652Z,1156.00
2019-04-04T11:36:20.653Z,1144.00
2019-04-04T11:37:20.647Z,1128.00
2019-04-04T11:38:21.019Z,1128.00
2019-04-04T11:39:20.595Z,1120.00
2019-04-04T11:40:20.587Z,1128.00
2019-04-04T11:41:20.630Z,1124.00
2019-04-04T11:42:20.585Z,1136.00
2019-04-04T11:43:20.585Z,1096.00
2019-04-04T11:44:20.599Z,1096.00
2019-04-04T11:45:20.535Z,1096.00
2019-04-04T11:46:20.545Z,1116.00
2019-04-04T11:47:20.535Z,1148.00
2019-04-04T11:48:20.524Z,1188.00
2019-04-04T11:49:20.491Z,1220.00
2019-04-04T11:50:20.489Z,1216.00
2019-04-04T11:51:20.464Z,1196.00
2019-04-04T11:52:20.465Z,1176.00
2019-04-04T11:53:20.476Z,1168.00
2019-04-04T11:54:20.452Z,1184.00
2019-04-04T11:55:20.459Z,1176.00
2019-04-04T11:56:20.429Z,1184.00
2019-04-04T11:57:20.397Z,1164.00
2019-04-04T11:58:20.395Z,1144.00
2019-04-04T11:59:20.431Z,1136.00
2019-04-04T12:00:20.392Z,1140.00
2019-04-04T12:01:20.388Z,1120.00
2019-04-04T12:02:20.398Z,1108.00
2019-04-04T12:03:20.354Z,1084.00
2019-04-04T12:04:20.343Z,1056.00
2019-04-04T12:05:20.344Z,1000.00
2019-04-04T12:06:20.301Z,988.00
2019-04-04T12:07:20.299Z,948.00
2019-04-04T12:08:20.299Z,912.00
2019-04-04T12:09:20.280Z,904.00
2019-04-04T12:10:20.272Z,860.00
2019-04-04T12:11:22.665Z,860.00
2019-04-04T12:12:20.231Z,824.00
2019-04-04T12:13:20.243Z,824.00
2019-04-04T12:14:20.213Z,836.00
2019-04-04T12:15:20.205Z,832.00
2019-04-04T12:16:20.213Z,824.00
2019-04-04T12:17:20.245Z,808.00
2019-04-04T12:18:20.167Z,832.00
2019-04-04T12:19:20.154Z,808.00
2019-04-04T12:20:20.151Z,784.00
2019-04-04T12:21:20.163Z,768.00
2019-04-04T12:22:20.167Z,792.00
2019-04-04T12:23:20.156Z,784.00
2019-04-04T12:24:20.133Z,808.00
2019-04-04T12:25:20.092Z,808.00
2019-04-04T12:26:20.083Z,816.00
2019-04-04T12:27:20.078Z,820.00
2019-04-04T12:28:20.064Z,816.00
2019-04-04T12:29:20.073Z,844.00
2019-04-04T12:30:20.874Z,860.00
2019-04-04T12:31:20.025Z,880.00
2019-04-04T12:32:20.011Z,892.00
2019-04-04T12:33:20.004Z,908.00
2019-04-04T12:34:20.003Z,944.00
2019-04-04T12:35:20.005Z,932.00
2019-04-04T12:36:24.935Z,932.00
2019-04-04T12:37:20.979Z,940.00
2019-04-04T12:38:20.033Z,920.00